createdAt,value
2018-10-02T00:00:34.857Z,0.00
2018-10-02T00:01:34.846Z,0.00
2018-10-02T00:02:34.842Z,0.00
2018-10-02T00:03:34.833Z,0.00
2018-10-02T00:04:34.869Z,0.00
2018-10-02T00:05:34.815Z,0.00
2018-10-02T00:06:34.835Z,0.00
2018-10-02T00:07:34.801Z,0.00
2018-10-02T00:08:34.796Z,0.00
2018-10-02T00:09:34.788Z,0.00
2018-10-02T00:10:34.783Z,0.00
2018-10-02T00:11:34.771Z,0.00
2018-10-02T00:12:34.766Z,0.00
2018-10-02T00:13:34.756Z,0.00
2018-10-02T00:14:34.751Z,0.00
2018-10-02T00:15:34.743Z,0.00
2018-10-02T00:16:34.738Z,0.00
2018-10-02T00:17:34.726Z,0.00
2018-10-02T00:18:34.723Z,0.00
2018-10-02T00:19:34.712Z,0.00
2018-10-02T00:20:34.708Z,0.00
2018-10-02T00:21:34.697Z,0.00
2018-10-02T00:22:34.691Z,0.00
2018-10-02T00:23:34.682Z,0.00
2018-10-02T00:24:34.677Z,0.00
2018-10-02T00:25:34.668Z,0.00
2018-10-02T00:26:34.661Z,0.00
2018-10-02T00:27:34.651Z,0.00
2018-10-02T00:28:34.647Z,0.00
2018-10-02T00:29:34.636Z,0.00
2018-10-02T00:30:34.632Z,0.00
2018-10-02T00:31:34.707Z,0.00
2018-10-02T00:32:34.618Z,0.00
2018-10-02T00:33:34.610Z,0.00
2018-10-02T00:34:34.601Z,0.00
2018-10-02T00:35:34.594Z,0.00
2018-10-02T00:36:34.597Z,0.00
2018-10-02T00:37:34.576Z,0.00
2018-10-02T00:38:34.571Z,0.00
2018-10-02T00:39:34.562Z,0.00
2018-10-02T00:40:34.556Z,0.00
2018-10-02T00:41:34.546Z,0.00
2018-10-02T00:42:34.590Z,0.00
2018-10-02T00:43:34.533Z,0.00
2018-10-02T00:44:34.540Z,0.00
2018-10-02T00:45:34.516Z,0.00
2018-10-02T00:46:34.511Z,0.00
2018-10-02T00:47:34.502Z,0.00
2018-10-02T00:48:34.496Z,0.00
2018-10-02T00:49:34.486Z,0.00
2018-10-02T00:50:34.481Z,0.00
2018-10-02T00:51:34.471Z,0.00
2018-10-02T00:52:34.468Z,0.00
2018-10-02T00:53:34.457Z,0.00
2018-10-02T00:54:34.451Z,0.00
2018-10-02T00:55:34.441Z,0.00
2018-10-02T00:56:34.459Z,0.00
2018-10-02T00:57:34.427Z,0.00
2018-10-02T00:58:34.422Z,0.00
2018-10-02T00:59:34.412Z,0.00
2018-10-02T01:00:34.408Z,0.00
2018-10-02T01:01:34.397Z,0.00
2018-10-02T01:02:34.392Z,0.00
2018-10-02T01:03:34.383Z,0.00
2018-10-02T01:04:34.377Z,0.00
2018-10-02T01:05:34.368Z,0.00
2018-10-02T01:06:34.363Z,0.00
2018-10-02T01:07:34.355Z,0.00
2018-10-02T01:08:34.348Z,0.00
2018-10-02T01:09:34.338Z,0.00
2018-10-02T01:10:34.333Z,0.00
2018-10-02T01:11:34.324Z,0.00
2018-10-02T01:12:34.318Z,0.00
2018-10-02T01:13:34.310Z,0.00
2018-10-02T01:14:34.303Z,0.00
2018-10-02T01:15:34.294Z,0.00
2018-10-02T01:16:34.289Z,0.00
2018-10-02T01:17:34.278Z,0.00
2018-10-02T01:18:34.273Z,0.00
2018-10-02T01:19:34.264Z,0.00
2018-10-02T01:20:34.259Z,0.00
2018-10-02T01:21:34.249Z,0.00
2018-10-02T01:22:34.252Z,0.00
2018-10-02T01:23:34.234Z,0.00
2018-10-02T01:24:34.229Z,0.00
2018-10-02T01:25:34.219Z,0.00
2018-10-02T01:26:34.214Z,0.00
2018-10-02T01:27:34.204Z,0.00
2018-10-02T01:28:34.227Z,0.00
2018-10-02T01:29:34.190Z,0.00
2018-10-02T01:30:34.186Z,0.00
2018-10-02T01:31:34.175Z,0.00
2018-10-02T01:32:34.174Z,0.00
2018-10-02T01:33:34.161Z,0.00
2018-10-02T01:34:34.155Z,0.00
2018-10-02T01:35:34.156Z,0.00
2018-10-02T01:36:34.157Z,0.00
2018-10-02T01:37:34.130Z,0.00
2018-10-02T01:38:34.131Z,0.00
2018-10-02T01:39:34.120Z,0.00
2018-10-02T01:40:34.112Z,0.00
2018-10-02T01:41:34.101Z,0.00
2018-10-02T01:42:34.101Z,0.00
2018-10-02T01:43:34.100Z,0.00
2018-10-02T01:44:34.083Z,0.00
2018-10-02T01:45:34.073Z,0.00
2018-10-02T01:46:34.068Z,0.00
2018-10-02T01:47:34.309Z,0.00
2018-10-02T01:48:34.065Z,0.00
2018-10-02T01:49:34.045Z,0.00
2018-10-02T01:50:34.038Z,0.00
2018-10-02T01:51:34.029Z,0.00
2018-10-02T01:52:34.024Z,0.00
2018-10-02T01:53:34.014Z,0.00
2018-10-02T01:54:34.010Z,0.00
2018-10-02T01:55:34.003Z,0.00
2018-10-02T01:56:33.995Z,0.00
2018-10-02T01:57:33.984Z,0.00
2018-10-02T01:58:33.980Z,0.00
2018-10-02T01:59:33.971Z,0.00
2018-10-02T02:00:33.966Z,0.00
2018-10-02T02:01:33.956Z,0.00
2018-10-02T02:02:33.951Z,0.00
2018-10-02T02:03:33.952Z,0.00
2018-10-02T02:04:33.940Z,0.00
2018-10-02T02:05:33.928Z,0.00
2018-10-02T02:06:33.927Z,0.00
2018-10-02T02:07:33.916Z,0.00
2018-10-02T02:08:33.908Z,0.00
2018-10-02T02:09:33.898Z,0.00
2018-10-02T02:10:33.896Z,0.00
2018-10-02T02:11:33.885Z,0.00
2018-10-02T02:12:33.880Z,0.00
2018-10-02T02:13:33.891Z,0.00
2018-10-02T02:14:33.865Z,0.00
2018-10-02T02:15:33.856Z,0.00
2018-10-02T02:16:33.851Z,0.00
2018-10-02T02:17:33.843Z,0.00
2018-10-02T02:18:33.836Z,0.00
2018-10-02T02:19:33.834Z,0.00
2018-10-02T02:20:33.822Z,0.00
2018-10-02T02:21:33.815Z,0.00
2018-10-02T02:22:33.811Z,0.00
2018-10-02T02:23:33.798Z,0.00
2018-10-02T02:24:33.798Z,0.00
2018-10-02T02:25:33.787Z,0.00
2018-10-02T02:26:33.778Z,0.00
2018-10-02T02:27:33.768Z,0.00
2018-10-02T02:28:33.764Z,0.00
2018-10-02T02:29:33.755Z,0.00
2018-10-02T02:30:33.749Z,0.00
2018-10-02T02:31:33.741Z,0.00
2018-10-02T02:32:33.735Z,0.00
2018-10-02T02:33:33.725Z,0.00
2018-10-02T02:34:33.720Z,0.00
2018-10-02T02:35:33.731Z,0.00
2018-10-02T02:36:33.706Z,0.00
2018-10-02T02:37:33.699Z,0.00
2018-10-02T02:38:33.691Z,0.00
2018-10-02T02:39:33.682Z,0.00
2018-10-02T02:40:33.677Z,0.00
2018-10-02T02:41:33.667Z,0.00
2018-10-02T02:42:33.663Z,0.00
2018-10-02T02:43:33.653Z,0.00
2018-10-02T02:44:33.648Z,0.00
2018-10-02T02:45:33.637Z,0.00
2018-10-02T02:46:33.633Z,0.00
2018-10-02T02:47:33.624Z,0.00
2018-10-02T02:48:33.619Z,0.00
2018-10-02T02:49:33.609Z,0.00
2018-10-02T02:50:33.605Z,0.00
2018-10-02T02:51:33.594Z,0.00
2018-10-02T02:52:33.616Z,0.00
2018-10-02T02:53:33.834Z,0.00
2018-10-02T02:54:33.576Z,0.00
2018-10-02T02:55:33.566Z,0.00
2018-10-02T02:56:33.562Z,0.00
2018-10-02T02:57:33.551Z,0.00
2018-10-02T02:58:33.567Z,0.00
2018-10-02T02:59:33.540Z,0.00
2018-10-02T03:00:33.530Z,0.00
2018-10-02T03:01:33.524Z,0.00
2018-10-02T03:02:33.516Z,0.00
2018-10-02T03:03:33.513Z,0.00
2018-10-02T03:04:33.502Z,0.00
2018-10-02T03:05:33.495Z,0.00
2018-10-02T03:06:33.487Z,0.00
2018-10-02T03:07:33.481Z,0.00
2018-10-02T03:08:33.479Z,0.00
2018-10-02T03:09:33.467Z,0.00
2018-10-02T03:10:33.457Z,0.00
2018-10-02T03:11:33.452Z,0.00
2018-10-02T03:12:33.443Z,0.00
2018-10-02T03:13:33.437Z,0.00
2018-10-02T03:14:33.430Z,0.00
2018-10-02T03:15:33.422Z,0.00
2018-10-02T03:16:33.414Z,0.00
2018-10-02T03:17:33.408Z,0.00
2018-10-02T03:18:33.398Z,0.00
2018-10-02T03:19:33.399Z,0.00
2018-10-02T03:20:33.385Z,0.00
2018-10-02T03:21:33.382Z,0.00
2018-10-02T03:22:33.371Z,0.00
2018-10-02T03:23:33.616Z,0.00
2018-10-02T03:24:33.356Z,0.00
2018-10-02T03:25:33.350Z,0.00
2018-10-02T03:26:33.340Z,0.00
2018-10-02T03:27:33.337Z,0.00
2018-10-02T03:28:33.330Z,0.00
2018-10-02T03:29:33.321Z,0.00
2018-10-02T03:30:33.311Z,0.00
2018-10-02T03:31:33.307Z,0.00
2018-10-02T03:32:33.297Z,0.00
2018-10-02T03:33:33.292Z,0.00
2018-10-02T03:34:33.290Z,0.00
2018-10-02T03:35:33.286Z,0.00
2018-10-02T03:36:33.285Z,0.00
2018-10-02T03:37:33.265Z,0.00
2018-10-02T03:38:33.254Z,0.00
2018-10-02T03:39:33.272Z,0.00
2018-10-02T03:40:33.243Z,0.00
2018-10-02T03:41:33.235Z,0.00
2018-10-02T03:42:33.231Z,0.00
2018-10-02T03:43:33.232Z,0.00
2018-10-02T03:44:33.213Z,0.00
2018-10-02T03:45:33.206Z,0.00
2018-10-02T03:46:33.199Z,0.00
2018-10-02T03:47:33.194Z,0.00
2018-10-02T03:48:33.184Z,0.00
2018-10-02T03:49:33.178Z,0.00
2018-10-02T03:50:33.170Z,0.00
2018-10-02T03:51:33.164Z,0.00
2018-10-02T03:52:33.156Z,0.00
2018-10-02T03:53:33.400Z,0.00
2018-10-02T03:54:33.143Z,0.00
2018-10-02T03:55:33.183Z,0.00
2018-10-02T03:56:33.127Z,0.00
2018-10-02T03:57:33.122Z,0.00
2018-10-02T03:58:33.113Z,0.00
2018-10-02T03:59:33.108Z,0.00
2018-10-02T04:00:33.098Z,0.00
2018-10-02T04:01:33.093Z,0.00
2018-10-02T04:02:33.090Z,0.00
2018-10-02T04:03:33.097Z,0.00
2018-10-02T04:04:33.070Z,0.00
2018-10-02T04:05:33.066Z,0.00
2018-10-02T04:06:33.056Z,0.00
2018-10-02T04:07:33.051Z,0.00
2018-10-02T04:08:33.042Z,0.00
2018-10-02T04:09:33.037Z,0.00
2018-10-02T04:10:33.028Z,0.00
2018-10-02T04:11:33.025Z,0.00
2018-10-02T04:12:33.024Z,0.00
2018-10-02T04:13:33.015Z,0.00
2018-10-02T04:14:33.000Z,0.00
2018-10-02T04:15:32.995Z,0.00
2018-10-02T04:16:32.986Z,0.00
2018-10-02T04:17:32.981Z,0.00
2018-10-02T04:18:32.973Z,0.00
2018-10-02T04:19:32.967Z,0.00
2018-10-02T04:20:33.009Z,0.00
2018-10-02T04:21:32.952Z,0.00
2018-10-02T04:22:32.944Z,0.00
2018-10-02T04:23:32.939Z,0.00
2018-10-02T04:24:32.930Z,0.00
2018-10-02T04:25:32.925Z,0.00
2018-10-02T04:26:32.916Z,0.00
2018-10-02T04:27:32.915Z,0.00
2018-10-02T04:28:32.958Z,0.00
2018-10-02T04:29:32.897Z,0.00
2018-10-02T04:30:32.888Z,0.00
2018-10-02T04:31:32.883Z,0.00
2018-10-02T04:32:32.874Z,0.00
2018-10-02T04:33:32.909Z,0.00
2018-10-02T04:34:32.861Z,0.00
2018-10-02T04:35:32.855Z,0.00
2018-10-02T04:36:32.847Z,0.00
2018-10-02T04:37:32.841Z,0.00
2018-10-02T04:38:32.830Z,0.00
2018-10-02T04:39:32.919Z,0.00
2018-10-02T04:40:32.818Z,0.00
2018-10-02T04:41:32.812Z,0.00
2018-10-02T04:42:32.804Z,0.00
2018-10-02T04:43:32.799Z,0.00
2018-10-02T04:44:32.790Z,0.00
2018-10-02T04:45:32.790Z,0.00
2018-10-02T04:46:32.776Z,0.00
2018-10-02T04:47:32.772Z,0.00
2018-10-02T04:48:32.762Z,0.00
2018-10-02T04:49:32.757Z,0.00
2018-10-02T04:50:32.748Z,0.00
2018-10-02T04:51:32.744Z,0.00
2018-10-02T04:52:32.736Z,0.00
2018-10-02T04:53:32.729Z,0.00
2018-10-02T04:54:32.721Z,0.00
2018-10-02T04:55:32.717Z,0.00
2018-10-02T04:56:32.706Z,0.00
2018-10-02T04:57:32.702Z,0.00
2018-10-02T04:58:32.694Z,0.00
2018-10-02T04:59:32.939Z,0.00
2018-10-02T05:00:32.680Z,0.00
2018-10-02T05:01:32.679Z,0.00
2018-10-02T05:02:32.670Z,0.00
2018-10-02T05:03:32.662Z,0.00
2018-10-02T05:04:32.654Z,0.00
2018-10-02T05:05:32.646Z,0.00
2018-10-02T05:06:32.638Z,0.00
2018-10-02T05:07:32.634Z,0.00
2018-10-02T05:08:32.666Z,0.00
2018-10-02T05:09:32.619Z,0.00
2018-10-02T05:10:32.610Z,0.00
2018-10-02T05:11:32.606Z,0.00
2018-10-02T05:12:32.597Z,0.00
2018-10-02T05:13:32.594Z,0.00
2018-10-02T05:14:32.582Z,0.00
2018-10-02T05:15:32.577Z,0.00
2018-10-02T05:16:32.568Z,0.00
2018-10-02T05:17:32.562Z,0.00
2018-10-02T05:18:32.553Z,0.00
2018-10-02T05:19:32.548Z,4.00
2018-10-02T05:20:32.600Z,4.00
2018-10-02T05:21:32.535Z,4.00
2018-10-02T05:22:32.526Z,4.00
2018-10-02T05:23:32.520Z,4.00
2018-10-02T05:24:32.511Z,4.00
2018-10-02T05:25:32.505Z,4.00
2018-10-02T05:26:32.500Z,0.00
2018-10-02T05:27:32.549Z,4.00
2018-10-02T05:28:32.485Z,4.00
2018-10-02T05:29:32.727Z,4.00
2018-10-02T05:30:32.467Z,4.00
2018-10-02T05:31:32.462Z,8.00
2018-10-02T05:32:32.454Z,8.00
2018-10-02T05:33:32.453Z,8.00
2018-10-02T05:34:32.438Z,8.00
2018-10-02T05:35:32.566Z,12.00
2018-10-02T05:36:32.425Z,8.00
2018-10-02T05:37:32.440Z,12.00
2018-10-02T05:38:32.422Z,16.00
2018-10-02T05:39:32.409Z,16.00
2018-10-02T05:40:32.395Z,16.00
2018-10-02T05:41:32.390Z,20.00
2018-10-02T05:42:32.384Z,20.00
2018-10-02T05:43:32.378Z,24.00
2018-10-02T05:44:32.369Z,24.00
2018-10-02T05:45:32.368Z,24.00
2018-10-02T05:46:32.367Z,28.00
2018-10-02T05:47:32.347Z,32.00
2018-10-02T05:48:32.337Z,40.00
2018-10-02T05:49:32.330Z,40.00
2018-10-02T05:50:32.323Z,44.00
2018-10-02T05:51:32.315Z,48.00
2018-10-02T05:52:32.306Z,52.00
2018-10-02T05:53:32.300Z,52.00
2018-10-02T05:54:32.292Z,56.00
2018-10-02T05:55:32.286Z,56.00
2018-10-02T05:56:32.277Z,56.00
2018-10-02T05:57:32.270Z,56.00
2018-10-02T05:58:32.293Z,56.00
2018-10-02T05:59:32.256Z,64.00
2018-10-02T06:00:32.247Z,68.00
2018-10-02T06:01:32.241Z,76.00
2018-10-02T06:02:32.232Z,76.00
2018-10-02T06:03:32.225Z,84.00
2018-10-02T06:04:32.217Z,84.00
2018-10-02T06:05:32.211Z,84.00
2018-10-02T06:06:32.200Z,84.00
2018-10-02T06:07:32.198Z,80.00
2018-10-02T06:08:32.186Z,72.00
2018-10-02T06:09:32.180Z,76.00
2018-10-02T06:10:32.172Z,80.00
2018-10-02T06:11:32.164Z,88.00
2018-10-02T06:12:32.155Z,92.00
2018-10-02T06:13:32.152Z,100.00
2018-10-02T06:14:32.140Z,100.00
2018-10-02T06:15:32.136Z,108.00
2018-10-02T06:16:32.125Z,120.00
2018-10-02T06:17:32.119Z,136.00
2018-10-02T06:18:32.113Z,148.00
2018-10-02T06:19:32.103Z,160.00
2018-10-02T06:20:32.094Z,156.00
2018-10-02T06:21:32.088Z,172.00
2018-10-02T06:22:32.079Z,180.00
2018-10-02T06:23:32.073Z,172.00
2018-10-02T06:24:32.067Z,168.00
2018-10-02T06:25:32.057Z,160.00
2018-10-02T06:26:32.053Z,164.00
2018-10-02T06:27:32.042Z,152.00
2018-10-02T06:28:32.035Z,196.00
2018-10-02T06:29:32.027Z,240.00
2018-10-02T06:30:32.018Z,248.00
2018-10-02T06:35:32.283Z,220.00
2018-10-02T06:36:31.973Z,192.00
2018-10-02T06:37:31.967Z,176.00
2018-10-02T06:38:31.995Z,208.00
2018-10-02T06:39:31.953Z,276.00
2018-10-02T06:40:31.949Z,328.00
2018-10-02T06:41:31.938Z,332.00
2018-10-02T06:42:31.929Z,348.00
2018-10-02T06:43:31.931Z,376.00
2018-10-02T06:44:31.973Z,400.00
2018-10-02T06:45:31.910Z,376.00
2018-10-02T06:46:31.900Z,336.00
2018-10-02T06:47:31.892Z,300.00
2018-10-02T06:48:31.884Z,276.00
2018-10-02T06:49:31.877Z,268.00
2018-10-02T06:50:31.930Z,252.00
2018-10-02T06:51:31.977Z,252.00
2018-10-02T06:52:32.290Z,260.00
2018-10-02T06:53:31.848Z,272.00
2018-10-02T06:54:31.837Z,292.00
2018-10-02T06:55:31.832Z,300.00
2018-10-02T06:56:31.889Z,296.00
2018-10-02T06:57:31.816Z,292.00
2018-10-02T06:58:31.807Z,256.00
2018-10-02T06:59:31.802Z,228.00
2018-10-02T07:00:31.898Z,196.00
2018-10-02T07:01:31.786Z,180.00
2018-10-02T07:02:31.789Z,148.00
2018-10-02T07:03:31.772Z,152.00
2018-10-02T07:04:31.765Z,216.00
2018-10-02T07:05:31.756Z,256.00
2018-10-02T07:06:31.794Z,288.00
2018-10-02T07:07:31.741Z,308.00
2018-10-02T07:08:31.764Z,344.00
2018-10-02T07:09:31.726Z,380.00
2018-10-02T07:10:31.716Z,412.00
2018-10-02T07:11:31.712Z,436.00
2018-10-02T07:12:31.724Z,432.00
2018-10-02T07:13:31.696Z,424.00
2018-10-02T07:14:31.716Z,408.00
2018-10-02T07:15:31.681Z,392.00
2018-10-02T07:16:31.682Z,408.00
2018-10-02T07:17:31.718Z,400.00
2018-10-02T07:18:31.659Z,416.00
2018-10-02T07:19:31.651Z,360.00
2018-10-02T07:20:31.695Z,296.00
2018-10-02T07:21:31.634Z,224.00
2018-10-02T07:22:31.629Z,268.00
2018-10-02T07:23:31.620Z,280.00
2018-10-02T07:24:31.616Z,368.00
2018-10-02T07:25:31.605Z,440.00
2018-10-02T07:26:31.642Z,456.00
2018-10-02T07:27:31.758Z,460.00
2018-10-02T07:28:31.607Z,472.00
2018-10-02T07:29:31.575Z,384.00
2018-10-02T07:30:31.653Z,400.00
2018-10-02T07:31:31.560Z,448.00
2018-10-02T07:32:31.631Z,476.00
2018-10-02T07:33:31.545Z,492.00
2018-10-02T07:34:31.550Z,552.00
2018-10-02T07:35:31.547Z,604.00
2018-10-02T07:36:31.622Z,624.00
2018-10-02T07:37:31.516Z,672.00
2018-10-02T07:38:31.544Z,756.00
2018-10-02T07:39:31.502Z,800.00
2018-10-02T07:40:31.500Z,832.00
2018-10-02T07:41:31.526Z,828.00
2018-10-02T07:42:31.530Z,796.00
2018-10-02T07:43:31.471Z,836.00
2018-10-02T07:44:31.492Z,900.00
2018-10-02T07:45:31.457Z,872.00
2018-10-02T07:46:31.452Z,796.00
2018-10-02T07:47:31.501Z,708.00
2018-10-02T07:48:31.547Z,588.00
2018-10-02T07:49:31.430Z,564.00
2018-10-02T07:50:31.512Z,744.00
2018-10-02T07:51:31.413Z,788.00
2018-10-02T07:52:31.408Z,896.00
2018-10-02T07:53:31.439Z,944.00
2018-10-02T07:54:31.395Z,972.00
2018-10-02T07:55:31.415Z,916.00
2018-10-02T07:56:31.456Z,944.00
2018-10-02T07:57:31.369Z,924.00
2018-10-02T07:58:31.367Z,864.00
2018-10-02T07:59:31.392Z,788.00
2018-10-02T08:00:31.351Z,664.00
2018-10-02T08:01:31.340Z,696.00
2018-10-02T08:02:31.365Z,828.00
2018-10-02T08:03:31.326Z,832.00
2018-10-02T08:04:31.322Z,820.00
2018-10-02T08:05:31.329Z,1032.00
2018-10-02T08:06:31.307Z,1128.00
2018-10-02T08:07:31.308Z,952.00
2018-10-02T08:08:31.369Z,784.00
2018-10-02T08:09:31.283Z,692.00
2018-10-02T08:10:31.279Z,800.00
2018-10-02T08:11:31.275Z,856.00
2018-10-02T08:12:31.329Z,700.00
2018-10-02T08:13:31.292Z,656.00
2018-10-02T08:14:31.308Z,788.00
2018-10-02T08:15:31.241Z,912.00
2018-10-02T08:16:31.239Z,964.00
2018-10-02T08:17:31.252Z,972.00
2018-10-02T08:18:31.224Z,1076.00
2018-10-02T08:19:31.213Z,1224.00
2018-10-02T08:20:31.256Z,1120.00
2018-10-02T08:21:31.198Z,924.00
2018-10-02T08:22:31.193Z,684.00
2018-10-02T08:23:31.203Z,668.00
2018-10-02T08:24:31.186Z,800.00
2018-10-02T08:25:31.171Z,764.00
2018-10-02T08:26:31.228Z,640.00
2018-10-02T08:27:31.156Z,556.00
2018-10-02T08:28:31.150Z,568.00
2018-10-02T08:29:31.177Z,596.00
2018-10-02T08:30:31.136Z,588.00
2018-10-02T08:31:31.129Z,692.00
2018-10-02T08:32:31.170Z,652.00
2018-10-02T08:33:31.112Z,688.00
2018-10-02T08:34:31.108Z,580.00
2018-10-02T08:35:31.162Z,572.00
2018-10-02T08:36:31.151Z,488.00
2018-10-02T08:37:31.084Z,468.00
2018-10-02T08:38:31.101Z,500.00
2018-10-02T08:39:31.070Z,668.00
2018-10-02T08:40:31.067Z,716.00
2018-10-02T08:41:31.056Z,796.00
2018-10-02T08:42:31.081Z,1096.00
2018-10-02T08:43:31.137Z,1216.00
2018-10-02T08:44:31.101Z,1092.00
2018-10-02T08:45:31.027Z,1044.00
2018-10-02T08:46:31.023Z,676.00
2018-10-02T08:47:31.376Z,496.00
2018-10-02T08:48:31.009Z,500.00
2018-10-02T08:49:31.000Z,668.00
2018-10-02T08:50:31.057Z,864.00
2018-10-02T08:51:30.986Z,984.00
2018-10-02T08:52:30.981Z,908.00
2018-10-02T08:53:31.024Z,920.00
2018-10-02T08:54:30.967Z,864.00
2018-10-02T08:55:30.959Z,808.00
2018-10-02T08:56:30.953Z,772.00
2018-10-02T08:57:30.943Z,928.00
2018-10-02T08:58:30.940Z,884.00
2018-10-02T08:59:30.931Z,756.00
2018-10-02T09:00:30.941Z,800.00
2018-10-02T09:01:30.916Z,916.00
2018-10-02T09:02:30.911Z,1016.00
2018-10-02T09:03:30.902Z,964.00
2018-10-02T09:04:30.906Z,984.00
2018-10-02T09:05:30.888Z,1088.00
2018-10-02T09:06:30.916Z,1068.00
2018-10-02T09:07:30.874Z,956.00
2018-10-02T09:08:30.869Z,784.00
2018-10-02T09:09:30.860Z,748.00
2018-10-02T09:10:30.857Z,588.00
2018-10-02T09:11:30.846Z,664.00
2018-10-02T09:12:30.885Z,596.00
2018-10-02T09:13:30.831Z,588.00
2018-10-02T09:14:30.827Z,540.00
2018-10-02T09:15:30.885Z,572.00
2018-10-02T09:16:30.879Z,604.00
2018-10-02T09:17:30.804Z,684.00
2018-10-02T09:18:30.821Z,860.00
2018-10-02T09:19:30.790Z,868.00
2018-10-02T09:20:30.786Z,844.00
2018-10-02T09:21:30.784Z,700.00
2018-10-02T09:22:30.772Z,668.00
2018-10-02T09:23:30.762Z,620.00
2018-10-02T09:24:30.811Z,696.00
2018-10-02T09:25:30.748Z,848.00
2018-10-02T09:26:30.743Z,704.00
2018-10-02T09:27:30.784Z,692.00
2018-10-02T09:28:30.768Z,660.00
2018-10-02T09:29:30.721Z,672.00
2018-10-02T09:30:30.755Z,700.00
2018-10-02T09:31:30.707Z,740.00
2018-10-02T09:32:30.705Z,964.00
2018-10-02T09:33:30.761Z,876.00
2018-10-02T09:34:30.692Z,944.00
2018-10-02T09:35:30.679Z,768.00
2018-10-02T09:36:30.683Z,676.00
2018-10-02T09:37:30.832Z,816.00
2018-10-02T09:38:30.661Z,844.00
2018-10-02T09:39:30.708Z,1108.00
2018-10-02T09:40:30.647Z,992.00
2018-10-02T09:41:30.638Z,740.00
2018-10-02T09:42:30.744Z,720.00
2018-10-02T09:43:30.693Z,772.00
2018-10-02T09:44:30.624Z,884.00
2018-10-02T09:45:30.652Z,928.00
2018-10-02T09:46:30.605Z,800.00
2018-10-02T09:47:30.597Z,1096.00
2018-10-02T09:48:30.622Z,1408.00
2018-10-02T09:49:30.584Z,1772.00
2018-10-02T09:50:30.606Z,1528.00
2018-10-02T09:51:30.593Z,1128.00
2018-10-02T09:52:30.572Z,904.00
2018-10-02T09:53:30.555Z,700.00
2018-10-02T09:54:30.669Z,624.00
2018-10-02T09:55:30.542Z,588.00
2018-10-02T09:56:30.571Z,632.00
2018-10-02T09:57:30.529Z,900.00
2018-10-02T09:58:30.558Z,1044.00
2018-10-02T09:59:30.517Z,1044.00
2018-10-02T10:00:30.528Z,940.00
2018-10-02T10:01:30.504Z,960.00
2018-10-02T10:02:30.561Z,1012.00
2018-10-02T10:03:30.489Z,784.00
2018-10-02T10:04:30.485Z,824.00
2018-10-02T10:05:30.479Z,800.00
2018-10-02T10:06:30.478Z,768.00
2018-10-02T10:07:30.463Z,1012.00
2018-10-02T10:08:30.459Z,992.00
2018-10-02T10:09:30.450Z,824.00
2018-10-02T10:10:30.478Z,824.00
2018-10-02T10:11:30.436Z,868.00
2018-10-02T10:12:30.433Z,1052.00
2018-10-02T10:13:30.422Z,912.00
2018-10-02T10:14:30.418Z,956.00
2018-10-02T10:15:30.411Z,1012.00
2018-10-02T10:16:30.445Z,860.00
2018-10-02T10:17:30.482Z,872.00
2018-10-02T10:18:30.391Z,856.00
2018-10-02T10:19:30.385Z,832.00
2018-10-02T10:20:30.378Z,800.00
2018-10-02T10:21:30.370Z,796.00
2018-10-02T10:22:30.381Z,880.00
2018-10-02T10:23:30.356Z,1152.00
2018-10-02T10:24:30.353Z,1188.00
2018-10-02T10:25:30.343Z,820.00
2018-10-02T10:26:30.397Z,756.00
2018-10-02T10:27:30.330Z,804.00
2018-10-02T10:28:30.371Z,832.00
2018-10-02T10:29:30.315Z,704.00
2018-10-02T10:30:30.312Z,608.00
2018-10-02T10:31:30.303Z,656.00
2018-10-02T10:32:30.299Z,752.00
2018-10-02T10:33:30.326Z,1040.00
2018-10-02T10:34:30.329Z,840.00
2018-10-02T10:35:30.276Z,1036.00
2018-10-02T10:36:30.273Z,956.00
2018-10-02T10:37:30.264Z,828.00
2018-10-02T10:38:30.261Z,776.00
2018-10-02T10:39:30.251Z,832.00
2018-10-02T10:40:30.280Z,812.00
2018-10-02T10:41:30.237Z,664.00
2018-10-02T10:42:30.234Z,612.00
2018-10-02T10:43:30.226Z,680.00
2018-10-02T10:44:30.220Z,912.00
2018-10-02T10:45:30.211Z,812.00
2018-10-02T10:46:30.245Z,1004.00
2018-10-02T10:47:30.242Z,1028.00
2018-10-02T10:48:30.194Z,832.00
2018-10-02T10:49:30.185Z,824.00
2018-10-02T10:50:30.183Z,656.00
2018-10-02T10:51:30.175Z,644.00
2018-10-02T10:52:30.184Z,668.00
2018-10-02T10:53:30.159Z,816.00
2018-10-02T10:54:30.154Z,1012.00
2018-10-02T10:55:30.146Z,1360.00
2018-10-02T10:56:30.215Z,1924.00
2018-10-02T10:57:30.132Z,1984.00
2018-10-02T10:58:30.195Z,1844.00
2018-10-02T10:59:30.120Z,1296.00
2018-10-02T11:00:30.115Z,1144.00
2018-10-02T11:01:30.106Z,1024.00
2018-10-02T11:02:30.102Z,1000.00
2018-10-02T11:03:30.095Z,944.00
2018-10-02T11:04:30.100Z,1004.00
2018-10-02T11:05:30.092Z,1264.00
2018-10-02T11:06:30.079Z,1100.00
2018-10-02T11:07:30.067Z,1440.00
2018-10-02T11:08:30.063Z,1384.00
2018-10-02T11:09:30.066Z,1184.00
2018-10-02T11:10:30.051Z,1108.00
2018-10-02T11:11:30.041Z,928.00
2018-10-02T11:12:30.042Z,952.00
2018-10-02T11:13:30.028Z,1068.00
2018-10-02T11:14:30.024Z,936.00
2018-10-02T11:15:30.015Z,812.00
2018-10-02T11:16:30.023Z,848.00
2018-10-02T11:17:30.002Z,888.00
2018-10-02T11:18:29.998Z,1028.00
2018-10-02T11:19:30.036Z,1168.00
2018-10-02T11:20:29.985Z,1300.00
2018-10-02T11:21:29.980Z,1548.00
2018-10-02T11:22:29.972Z,1344.00
2018-10-02T11:23:29.966Z,1240.00
2018-10-02T11:24:29.962Z,944.00
2018-10-02T11:25:29.984Z,1152.00
2018-10-02T11:26:29.948Z,1532.00
2018-10-02T11:27:29.944Z,1340.00
2018-10-02T11:28:29.935Z,1536.00
2018-10-02T11:29:29.927Z,1732.00
2018-10-02T11:30:29.922Z,1716.00
2018-10-02T11:31:29.917Z,1768.00
2018-10-02T11:32:29.912Z,1664.00
2018-10-02T11:33:29.901Z,1560.00
2018-10-02T11:34:29.896Z,1372.00
2018-10-02T11:35:29.962Z,1216.00
2018-10-02T11:36:29.883Z,1408.00
2018-10-02T11:37:29.891Z,1520.00
2018-10-02T11:38:29.870Z,1504.00
2018-10-02T11:39:29.866Z,1524.00
2018-10-02T11:40:29.859Z,1652.00
2018-10-02T11:41:29.860Z,1916.00
2018-10-02T11:42:29.845Z,1732.00
2018-10-02T11:43:29.865Z,1660.00
2018-10-02T11:44:29.930Z,1544.00
2018-10-02T11:45:29.829Z,1516.00
2018-10-02T11:46:29.820Z,1356.00
2018-10-02T11:47:30.070Z,1372.00
2018-10-02T11:48:29.827Z,1704.00
2018-10-02T11:49:29.827Z,2060.00
2018-10-02T11:50:29.796Z,1744.00
2018-10-02T11:51:29.791Z,1936.00
2018-10-02T11:52:29.784Z,1452.00
2018-10-02T11:53:29.779Z,1452.00
2018-10-02T11:54:29.771Z,1244.00
2018-10-02T11:55:29.778Z,1568.00
2018-10-02T11:56:29.766Z,1196.00
2018-10-02T11:57:29.870Z,1168.00
2018-10-02T11:58:29.747Z,1160.00
2018-10-02T11:59:29.743Z,1272.00
2018-10-02T12:00:29.793Z,1564.00
2018-10-02T12:01:29.794Z,1512.00
2018-10-02T12:02:29.748Z,1504.00
2018-10-02T12:03:29.798Z,1488.00
2018-10-02T12:04:29.712Z,1148.00
2018-10-02T12:05:29.707Z,1028.00
2018-10-02T12:06:29.699Z,1048.00
2018-10-02T12:07:29.695Z,1456.00
2018-10-02T12:08:29.688Z,1708.00
2018-10-02T12:09:29.688Z,1836.00
2018-10-02T12:10:29.676Z,1840.00
2018-10-02T12:11:29.692Z,1624.00
2018-10-02T12:12:29.695Z,1420.00
2018-10-02T12:13:29.701Z,1184.00
2018-10-02T12:14:29.943Z,1212.00
2018-10-02T12:15:29.652Z,1312.00
2018-10-02T12:16:29.641Z,1696.00
2018-10-02T12:17:29.636Z,2132.00
2018-10-02T12:18:29.629Z,1760.00
2018-10-02T12:19:29.711Z,1424.00
2018-10-02T12:20:29.640Z,1456.00
2018-10-02T12:21:29.614Z,1632.00
2018-10-02T12:22:29.606Z,1900.00
2018-10-02T12:23:29.628Z,1572.00
2018-10-02T12:24:29.596Z,1464.00
2018-10-02T12:25:29.593Z,1244.00
2018-10-02T12:26:29.583Z,1360.00
2018-10-02T12:27:29.580Z,1472.00
2018-10-02T12:28:29.573Z,1752.00
2018-10-02T12:29:29.571Z,1828.00
2018-10-02T12:30:29.561Z,1748.00
2018-10-02T12:31:29.569Z,1572.00
2018-10-02T12:32:29.550Z,1688.00
2018-10-02T12:33:29.546Z,1772.00
2018-10-02T12:34:29.539Z,1400.00
2018-10-02T12:35:29.535Z,1280.00
2018-10-02T12:36:29.528Z,1048.00
2018-10-02T12:37:29.524Z,1100.00
2018-10-02T12:38:29.578Z,1532.00
2018-10-02T12:39:29.525Z,1508.00
2018-10-02T12:40:29.507Z,1536.00
2018-10-02T12:41:29.502Z,1536.00
2018-10-02T12:42:29.494Z,1280.00
2018-10-02T12:43:29.491Z,1264.00
2018-10-02T12:44:29.485Z,1648.00
2018-10-02T12:45:29.483Z,1884.00
2018-10-02T12:46:29.473Z,2024.00
2018-10-02T12:47:29.470Z,2124.00
2018-10-02T12:48:29.466Z,1968.00
2018-10-02T12:49:29.458Z,1644.00
2018-10-02T12:50:29.478Z,1684.00